CheckWX is a tool to help pilots better visualize weather data.  It is not intended as a substitute for an official pre-flight weather briefing.

06:46:31 UTC

ESOW METAR
Stockholm Västerås Airport
Stockholm / Västerås, Sweden
Current

27 mins ago

ESOW 210620Z AUTO 01009KT 9999 BKN078/// 16/11 Q1011
Observed
May-21 @ 06:20 UTC
Wind
  • 010° at 9 KTS
Visibility
10,000+ meters
Flight Rules
VFR
Cloud Levels
  • Broken at 7,800' AGL
Temperature
16°C / 61°F
Dewpoint
11°C / 52°F
Humidity
72%
Altimeter
29.85" Hg
Pressure
1010.92 hPa
Previous

57 mins ago

ESOW 210550Z AUTO 03005KT 360V080 9999 BKN110/// 15/11 Q1011
Observed
May-21 @ 05:50 UTC
Wind
  • 030° at 5 KTS
Visibility
10,000+ meters
Flight Rules
VFR
Cloud Levels
  • Broken at 11,000' AGL
Temperature
15°C / 59°F
Dewpoint
11°C / 52°F
Humidity
77%
Altimeter
29.85" Hg
Pressure
1010.92 hPa
Previous

1 hour ago

ESOW 210520Z AUTO 02010KT 9999 FEW088/// BKN110/// 14/10 Q1011
Observed
May-21 @ 05:20 UTC
Wind
  • 020° at 10 KTS
Visibility
10,000+ meters
Flight Rules
VFR
Cloud Levels
  • Few at 8,800' AGL
  • Broken at 11,000' AGL
Temperature
14°C / 57°F
Dewpoint
10°C / 50°F
Humidity
77%
Altimeter
29.85" Hg
Pressure
1010.92 hPa